sensor_id;sensor_type;location;lat;lon;timestamp;pressure;altitude;pressure_sealevel;temperature
24201;BMP280;2801;50.972;7.856;2023-09-19T00:01:00;96931.25;;;15.66
24201;BMP280;2801;50.972;7.856;2023-09-19T00:03:27;96932.44;;;15.68
24201;BMP280;2801;50.972;7.856;2023-09-19T00:05:57;96928.16;;;15.64
24201;BMP280;2801;50.972;7.856;2023-09-19T00:08:24;96938.88;;;15.57
24201;BMP280;2801;50.972;7.856;2023-09-19T00:10:51;96944.66;;;15.55
24201;BMP280;2801;50.972;7.856;2023-09-19T00:13:20;96948.50;;;15.54
24201;BMP280;2801;50.972;7.856;2023-09-19T00:15:48;96948.81;;;15.49
24201;BMP280;2801;50.972;7.856;2023-09-19T00:18:19;96949.59;;;15.50
24201;BMP280;2801;50.972;7.856;2023-09-19T00:20:48;96956.19;;;15.52
24201;BMP280;2801;50.972;7.856;2023-09-19T00:23:18;96959.59;;;15.49
24201;BMP280;2801;50.972;7.856;2023-09-19T00:25:46;96953.38;;;15.45
24201;BMP280;2801;50.972;7.856;2023-09-19T00:28:14;96955.25;;;15.41
24201;BMP280;2801;50.972;7.856;2023-09-19T00:30:43;96945.09;;;15.31
24201;BMP280;2801;50.972;7.856;2023-09-19T00:33:12;96951.56;;;15.27
24201;BMP280;2801;50.972;7.856;2023-09-19T00:35:54;96951.78;;;15.15
24201;BMP280;2801;50.972;7.856;2023-09-19T00:38:22;96957.56;;;15.13
24201;BMP280;2801;50.972;7.856;2023-09-19T00:40:54;96966.38;;;15.10
24201;BMP280;2801;50.972;7.856;2023-09-19T00:43:26;96957.44;;;15.06
24201;BMP280;2801;50.972;7.856;2023-09-19T00:45:56;96970.44;;;14.97
24201;BMP280;2801;50.972;7.856;2023-09-19T00:48:25;96970.00;;;14.95
24201;BMP280;2801;50.972;7.856;2023-09-19T00:50:57;96972.47;;;14.81
24201;BMP280;2801;50.972;7.856;2023-09-19T00:53:24;96968.09;;;14.73
24201;BMP280;2801;50.972;7.856;2023-09-19T00:55:52;96971.91;;;14.68
24201;BMP280;2801;50.972;7.856;2023-09-19T00:58:20;96970.59;;;14.59
24201;BMP280;2801;50.972;7.856;2023-09-19T01:00:49;96972.38;;;14.51
24201;BMP280;2801;50.972;7.856;2023-09-19T01:03:17;96969.91;;;14.43
24201;BMP280;2801;50.972;7.856;2023-09-19T01:05:45;96971.84;;;14.42
24201;BMP280;2801;50.972;7.856;2023-09-19T01:08:12;96976.00;;;14.40
24201;BMP280;2801;50.972;7.856;2023-09-19T01:11:11;96980.72;;;14.24
24201;BMP280;2801;50.972;7.856;2023-09-19T01:13:56;96987.41;;;14.11
24201;BMP280;2801;50.972;7.856;2023-09-19T01:17:05;96983.28;;;13.98
24201;BMP280;2801;50.972;7.856;2023-09-19T01:20:39;96990.16;;;13.95
24201;BMP280;2801;50.972;7.856;2023-09-19T01:23:23;96996.25;;;13.92
24201;BMP280;2801;50.972;7.856;2023-09-19T01:32:04;97006.28;;;13.73
24201;BMP280;2801;50.972;7.856;2023-09-19T01:34:50;97009.31;;;13.71
24201;BMP280;2801;50.972;7.856;2023-09-19T01:37:19;97011.16;;;13.67
24201;BMP280;2801;50.972;7.856;2023-09-19T01:39:55;97004.13;;;13.63
24201;BMP280;2801;50.972;7.856;2023-09-19T01:42:58;97010.72;;;13.65
24201;BMP280;2801;50.972;7.856;2023-09-19T01:45:59;97009.66;;;13.70
24201;BMP280;2801;50.972;7.856;2023-09-19T01:48:42;97014.00;;;13.74
24201;BMP280;2801;50.972;7.856;2023-09-19T01:54:09;97008.13;;;13.88
24201;BMP280;2801;50.972;7.856;2023-09-19T01:59:59;97016.47;;;14.02
24201;BMP280;2801;50.972;7.856;2023-09-19T02:02:29;97018.94;;;14.10
24201;BMP280;2801;50.972;7.856;2023-09-19T02:04:56;97013.88;;;14.24
24201;BMP280;2801;50.972;7.856;2023-09-19T02:07:23;97013.22;;;14.31
24201;BMP280;2801;50.972;7.856;2023-09-19T02:09:50;97012.03;;;14.28
24201;BMP280;2801;50.972;7.856;2023-09-19T02:12:17;97016.41;;;14.36
24201;BMP280;2801;50.972;7.856;2023-09-19T02:14:44;97009.94;;;14.41
24201;BMP280;2801;50.972;7.856;2023-09-19T02:17:11;97019.38;;;14.50
24201;BMP280;2801;50.972;7.856;2023-09-19T02:19:39;97024.44;;;14.55
24201;BMP280;2801;50.972;7.856;2023-09-19T02:22:08;97016.84;;;14.61
24201;BMP280;2801;50.972;7.856;2023-09-19T02:24:37;97019.25;;;14.66
24201;BMP280;2801;50.972;7.856;2023-09-19T02:27:07;97027.75;;;14.68
24201;BMP280;2801;50.972;7.856;2023-09-19T02:29:34;97039.75;;;14.70
24201;BMP280;2801;50.972;7.856;2023-09-19T02:32:01;97031.31;;;14.72
24201;BMP280;2801;50.972;7.856;2023-09-19T02:34:30;97034.03;;;14.75
24201;BMP280;2801;50.972;7.856;2023-09-19T02:36:57;97032.56;;;14.78
24201;BMP280;2801;50.972;7.856;2023-09-19T02:39:24;97033.75;;;14.81
24201;BMP280;2801;50.972;7.856;2023-09-19T02:41:51;97030.72;;;14.82
24201;BMP280;2801;50.972;7.856;2023-09-19T02:44:23;97034.47;;;14.77
24201;BMP280;2801;50.972;7.856;2023-09-19T02:46:50;97034.78;;;14.73
24201;BMP280;2801;50.972;7.856;2023-09-19T02:49:18;97041.25;;;14.68
24201;BMP280;2801;50.972;7.856;2023-09-19T02:51:45;97033.22;;;14.71
24201;BMP280;2801;50.972;7.856;2023-09-19T02:54:12;97038.56;;;14.68
24201;BMP280;2801;50.972;7.856;2023-09-19T02:56:40;97043.09;;;14.64
24201;BMP280;2801;50.972;7.856;2023-09-19T02:59:07;97046.34;;;14.73
24201;BMP280;2801;50.972;7.856;2023-09-19T03:01:37;97047.84;;;14.70
24201;BMP280;2801;50.972;7.856;2023-09-19T03:04:05;97047.84;;;14.70
24201;BMP280;2801;50.972;7.856;2023-09-19T03:06:35;97046.34;;;14.73
24201;BMP280;2801;50.972;7.856;2023-09-19T03:09:02;97042.94;;;14.76
24201;BMP280;2801;50.972;7.856;2023-09-19T03:11:32;97041.66;;;14.70
24201;BMP280;2801;50.972;7.856;2023-09-19T03:14:00;97056.06;;;14.77
24201;BMP280;2801;50.972;7.856;2023-09-19T03:16:26;97049.41;;;14.71
24201;BMP280;2801;50.972;7.856;2023-09-19T03:18:54;97060.13;;;14.68
24201;BMP280;2801;50.972;7.856;2023-09-19T03:21:20;97057.31;;;14.61
24201;BMP280;2801;50.972;7.856;2023-09-19T03:23:48;97061.44;;;14.55
24201;BMP280;2801;50.972;7.856;2023-09-19T03:26:15;97060.19;;;14.49
24201;BMP280;2801;50.972;7.856;2023-09-19T03:28:43;97061.59;;;14.43
24201;BMP280;2801;50.972;7.856;2023-09-19T03:31:12;97061.84;;;14.34
24201;BMP280;2801;50.972;7.856;2023-09-19T03:33:40;97068.84;;;14.39
24201;BMP280;2801;50.972;7.856;2023-09-19T03:36:07;97071.03;;;14.33
24201;BMP280;2801;50.972;7.856;2023-09-19T03:38:34;97079.06;;;14.30
24201;BMP280;2801;50.972;7.856;2023-09-19T03:41:02;97077.44;;;14.25
24201;BMP280;2801;50.972;7.856;2023-09-19T03:43:29;97085.47;;;14.22
24201;BMP280;2801;50.972;7.856;2023-09-19T03:46:02;97086.94;;;14.19
24201;BMP280;2801;50.972;7.856;2023-09-19T03:48:32;97087.28;;;14.18
24201;BMP280;2801;50.972;7.856;2023-09-19T03:51:00;97093.03;;;14.16
24201;BMP280;2801;50.972;7.856;2023-09-19T03:53:27;97094.94;;;14.16
24201;BMP280;2801;50.972;7.856;2023-09-19T03:55:54;97086.44;;;14.14
24201;BMP280;2801;50.972;7.856;2023-09-19T03:58:21;97090.22;;;14.13
24201;BMP280;2801;50.972;7.856;2023-09-19T04:00:48;97088.63;;;14.08
24201;BMP280;2801;50.972;7.856;2023-09-19T04:03:17;97080.88;;;14.07
24201;BMP280;2801;50.972;7.856;2023-09-19T04:05:47;97092.44;;;14.07
24201;BMP280;2801;50.972;7.856;2023-09-19T04:08:14;97085.84;;;14.05
24201;BMP280;2801;50.972;7.856;2023-09-19T04:10:44;97095.13;;;14.07
24201;BMP280;2801;50.972;7.856;2023-09-19T04:13:12;97091.38;;;14.12
24201;BMP280;2801;50.972;7.856;2023-09-19T04:15:39;97090.22;;;14.13
24201;BMP280;2801;50.972;7.856;2023-09-19T04:18:07;97078.53;;;14.05
24201;BMP280;2801;50.972;7.856;2023-09-19T04:20:34;97085.94;;;14.08
24201;BMP280;2801;50.972;7.856;2023-09-19T04:23:01;97081.25;;;14.05
24201;BMP280;2801;50.972;7.856;2023-09-19T04:25:29;97095.06;;;14.04
24201;BMP280;2801;50.972;7.856;2023-09-19T04:27:56;97084.19;;;14.00
24201;BMP280;2801;50.972;7.856;2023-09-19T04:30:23;97088.81;;;14.00
24201;BMP280;2801;50.972;7.856;2023-09-19T04:32:50;97093.00;;;13.97
24201;BMP280;2801;50.972;7.856;2023-09-19T04:35:18;97095.25;;;13.95
24201;BMP280;2801;50.972;7.856;2023-09-19T04:37:45;97101.09;;;13.97
24201;BMP280;2801;50.972;7.856;2023-09-19T04:40:12;97104.84;;;13.93
24201;BMP280;2801;50.972;7.856;2023-09-19T04:42:41;97097.44;;;13.90
24201;BMP280;2801;50.972;7.856;2023-09-19T04:45:09;97102.78;;;13.86
24201;BMP280;2801;50.972;7.856;2023-09-19T04:47:38;97099.28;;;13.86
24201;BMP280;2801;50.972;7.856;2023-09-19T04:50:09;97093.03;;;13.82
24201;BMP280;2801;50.972;7.856;2023-09-19T04:52:44;97097.13;;;13.76
24201;BMP280;2801;50.972;7.856;2023-09-19T04:55:13;97091.63;;;13.69
24201;BMP280;2801;50.972;7.856;2023-09-19T04:57:49;97097.69;;;13.66
24201;BMP280;2801;50.972;7.856;2023-09-19T05:00:22;97101.78;;;13.60
24201;BMP280;2801;50.972;7.856;2023-09-19T05:02:56;97109.09;;;13.59
24201;BMP280;2801;50.972;7.856;2023-09-19T05:05:24;97103.00;;;13.62
24201;BMP280;2801;50.972;7.856;2023-09-19T05:07:53;97111.41;;;13.61
24201;BMP280;2801;50.972;7.856;2023-09-19T05:10:23;97119.88;;;13.59
24201;BMP280;2801;50.972;7.856;2023-09-19T05:12:53;97111.97;;;13.51
24201;BMP280;2801;50.972;7.856;2023-09-19T05:15:20;97111.53;;;13.49
24201;BMP280;2801;50.972;7.856;2023-09-19T05:17:50;97119.59;;;13.49
24201;BMP280;2801;50.972;7.856;2023-09-19T05:20:23;97121.88;;;13.47
24201;BMP280;2801;50.972;7.856;2023-09-19T05:23:05;97132.56;;;13.43
24201;BMP280;2801;50.972;7.856;2023-09-19T05:25:40;97125.78;;;13.49
24201;BMP280;2801;50.972;7.856;2023-09-19T05:28:10;97131.97;;;13.50
24201;BMP280;2801;50.972;7.856;2023-09-19T05:30:38;97125.00;;;13.49
24201;BMP280;2801;50.972;7.856;2023-09-19T05:33:07;97124.81;;;13.42
24201;BMP280;2801;50.972;7.856;2023-09-19T05:35:35;97136.84;;;13.44
24201;BMP280;2801;50.972;7.856;2023-09-19T05:38:07;97132.56;;;13.43
24201;BMP280;2801;50.972;7.856;2023-09-19T05:40:40;97131.28;;;13.37
24201;BMP280;2801;50.972;7.856;2023-09-19T05:43:12;97142.66;;;13.31
24201;BMP280;2801;50.972;7.856;2023-09-19T05:45:43;97136.81;;;13.29
24201;BMP280;2801;50.972;7.856;2023-09-19T05:48:12;97141.53;;;13.32
24201;BMP280;2801;50.972;7.856;2023-09-19T05:50:40;97143.41;;;13.31
24201;BMP280;2801;50.972;7.856;2023-09-19T05:53:07;97153.84;;;13.33
24201;BMP280;2801;50.972;7.856;2023-09-19T05:55:34;97157.75;;;13.35
24201;BMP280;2801;50.972;7.856;2023-09-19T05:58:02;97159.75;;;13.38
24201;BMP280;2801;50.972;7.856;2023-09-19T06:00:30;97171.50;;;13.46
24201;BMP280;2801;50.972;7.856;2023-09-19T06:02:59;97176.50;;;13.47
24201;BMP280;2801;50.972;7.856;2023-09-19T06:05:27;97167.31;;;13.48
24201;BMP280;2801;50.972;7.856;2023-09-19T06:07:55;97174.34;;;13.53
24201;BMP280;2801;50.972;7.856;2023-09-19T06:10:27;97179.38;;;13.54
24201;BMP280;2801;50.972;7.856;2023-09-19T06:12:56;97182.94;;;13.58
24201;BMP280;2801;50.972;7.856;2023-09-19T06:15:25;97183.03;;;13.62
24201;BMP280;2801;50.972;7.856;2023-09-19T06:17:55;97190.75;;;13.63
24201;BMP280;2801;50.972;7.856;2023-09-19T06:20:24;97190.03;;;13.66
24201;BMP280;2801;50.972;7.856;2023-09-19T06:22:53;97188.16;;;13.67
24201;BMP280;2801;50.972;7.856;2023-09-19T06:25:21;97190.22;;;13.73
24201;BMP280;2801;50.972;7.856;2023-09-19T06:27:53;97183.16;;;13.84
24201;BMP280;2801;50.972;7.856;2023-09-19T06:30:23;97184.72;;;13.85
24201;BMP280;2801;50.972;7.856;2023-09-19T06:32:58;97192.09;;;13.88
24201;BMP280;2801;50.972;7.856;2023-09-19T06:35:28;97201.84;;;13.93
24201;BMP280;2801;50.972;7.856;2023-09-19T06:37:56;97212.69;;;13.96
24201;BMP280;2801;50.972;7.856;2023-09-19T06:40:25;97217.03;;;14.01
24201;BMP280;2801;50.972;7.856;2023-09-19T06:42:53;97223.41;;;14.08
24201;BMP280;2801;50.972;7.856;2023-09-19T06:45:20;97226.94;;;14.12
24201;BMP280;2801;50.972;7.856;2023-09-19T06:47:51;97224.50;;;14.23
24201;BMP280;2801;50.972;7.856;2023-09-19T06:50:21;97217.63;;;14.25
24201;BMP280;2801;50.972;7.856;2023-09-19T06:52:52;97229.28;;;14.29
24201;BMP280;2801;50.972;7.856;2023-09-19T06:55:21;97232.41;;;14.31
24201;BMP280;2801;50.972;7.856;2023-09-19T06:57:52;97225.94;;;14.36
24201;BMP280;2801;50.972;7.856;2023-09-19T07:00:21;97226.72;;;14.36
24201;BMP280;2801;50.972;7.856;2023-09-19T07:05:31;97226.91;;;14.43
24201;BMP280;2801;50.972;7.856;2023-09-19T07:08:01;97242.94;;;14.55
24201;BMP280;2801;50.972;7.856;2023-09-19T07:10:30;97241.53;;;14.61
24201;BMP280;2801;50.972;7.856;2023-09-19T07:13:03;97232.25;;;14.59
24201;BMP280;2801;50.972;7.856;2023-09-19T07:15:33;97240.03;;;14.64
24201;BMP280;2801;50.972;7.856;2023-09-19T07:18:07;97238.25;;;14.71
24201;BMP280;2801;50.972;7.856;2023-09-19T07:20:38;97235.72;;;14.78
24201;BMP280;2801;50.972;7.856;2023-09-19T07:23:06;97240.47;;;14.85
24201;BMP280;2801;50.972;7.856;2023-09-19T07:25:35;97245.66;;;14.94
24201;BMP280;2801;50.972;7.856;2023-09-19T07:28:03;97242.31;;;15.00
24201;BMP280;2801;50.972;7.856;2023-09-19T07:30:30;97233.94;;;15.05
24201;BMP280;2801;50.972;7.856;2023-09-19T07:32:57;97237.03;;;15.07
24201;BMP280;2801;50.972;7.856;2023-09-19T07:35:24;97239.03;;;15.10
24201;BMP280;2801;50.972;7.856;2023-09-19T07:37:52;97239.97;;;15.18
24201;BMP280;2801;50.972;7.856;2023-09-19T07:40:19;97245.41;;;15.21
24201;BMP280;2801;50.972;7.856;2023-09-19T07:42:50;97247.81;;;15.26
24201;BMP280;2801;50.972;7.856;2023-09-19T07:45:17;97238.66;;;15.31
24201;BMP280;2801;50.972;7.856;2023-09-19T07:47:49;97242.66;;;15.37
24201;BMP280;2801;50.972;7.856;2023-09-19T07:50:17;97239.22;;;15.40
24201;BMP280;2801;50.972;7.856;2023-09-19T07:52:49;97241.28;;;15.46
24201;BMP280;2801;50.972;7.856;2023-09-19T07:55:20;97239.00;;;15.48
24201;BMP280;2801;50.972;7.856;2023-09-19T07:57:51;97235.53;;;15.48
24201;BMP280;2801;50.972;7.856;2023-09-19T08:00:19;97236.38;;;15.52
24201;BMP280;2801;50.972;7.856;2023-09-19T08:02:46;97241.03;;;15.55
24201;BMP280;2801;50.972;7.856;2023-09-19T08:05:22;97244.16;;;15.57
24201;BMP280;2801;50.972;7.856;2023-09-19T08:07:50;97251.22;;;15.61
24201;BMP280;2801;50.972;7.856;2023-09-19T08:10:17;97257.50;;;15.69
24201;BMP280;2801;50.972;7.856;2023-09-19T08:12:48;97249.16;;;15.77
24201;BMP280;2801;50.972;7.856;2023-09-19T08:15:17;97253.78;;;15.77
24201;BMP280;2801;50.972;7.856;2023-09-19T08:17:46;97258.09;;;15.81
24201;BMP280;2801;50.972;7.856;2023-09-19T08:20:14;97254.97;;;15.79
24201;BMP280;2801;50.972;7.856;2023-09-19T08:22:50;97257.78;;;15.86
24201;BMP280;2801;50.972;7.856;2023-09-19T08:25:21;97260.97;;;15.92
24201;BMP280;2801;50.972;7.856;2023-09-19T08:27:49;97261.09;;;15.99
24201;BMP280;2801;50.972;7.856;2023-09-19T08:30:19;97261.09;;;15.99
24201;BMP280;2801;50.972;7.856;2023-09-19T08:32:51;97266.13;;;16.00
24201;BMP280;2801;50.972;7.856;2023-09-19T08:35:24;97268.88;;;16.04
24201;BMP280;2801;50.972;7.856;2023-09-19T08:37:51;97268.16;;;16.07
24201;BMP280;2801;50.972;7.856;2023-09-19T08:40:18;97260.22;;;16.17
24201;BMP280;2801;50.972;7.856;2023-09-19T08:42:56;97261.94;;;16.29
24201;BMP280;2801;50.972;7.856;2023-09-19T08:45:25;97269.69;;;16.30
24201;BMP280;2801;50.972;7.856;2023-09-19T08:50:58;97264.28;;;16.30
24201;BMP280;2801;50.972;7.856;2023-09-19T08:53:50;97270.97;;;16.36
24201;BMP280;2801;50.972;7.856;2023-09-19T08:56:18;97265.72;;;16.47
24201;BMP280;2801;50.972;7.856;2023-09-19T08:58:53;97258.31;;;16.44
24201;BMP280;2801;50.972;7.856;2023-09-19T09:01:27;97273.50;;;16.52
24201;BMP280;2801;50.972;7.856;2023-09-19T09:03:56;97269.34;;;16.58
24201;BMP280;2801;50.972;7.856;2023-09-19T09:06:25;97281.41;;;16.64
24201;BMP280;2801;50.972;7.856;2023-09-19T09:08:55;97279.13;;;16.66
24201;BMP280;2801;50.972;7.856;2023-09-19T09:11:23;97269.84;;;16.67
24201;BMP280;2801;50.972;7.856;2023-09-19T09:13:51;97282.75;;;16.77
24201;BMP280;2801;50.972;7.856;2023-09-19T09:16:19;97282.06;;;16.83
24201;BMP280;2801;50.972;7.856;2023-09-19T09:18:47;97273.16;;;16.83
24201;BMP280;2801;50.972;7.856;2023-09-19T09:21:22;97275.94;;;16.86
24201;BMP280;2801;50.972;7.856;2023-09-19T09:23:52;97274.31;;;16.82
24201;BMP280;2801;50.972;7.856;2023-09-19T09:29:05;97273.22;;;16.86
24201;BMP280;2801;50.972;7.856;2023-09-19T09:31:32;97275.69;;;16.98
24201;BMP280;2801;50.972;7.856;2023-09-19T09:34:00;97271.50;;;17.04
24201;BMP280;2801;50.972;7.856;2023-09-19T09:36:41;97276.63;;;17.13
24201;BMP280;2801;50.972;7.856;2023-09-19T09:39:08;97280.84;;;17.10
24201;BMP280;2801;50.972;7.856;2023-09-19T09:41:43;97270.47;;;17.16
24201;BMP280;2801;50.972;7.856;2023-09-19T09:44:16;97276.44;;;17.28
24201;BMP280;2801;50.972;7.856;2023-09-19T09:46:47;97272.31;;;17.41
24201;BMP280;2801;50.972;7.856;2023-09-19T09:49:27;97270.13;;;17.54
24201;BMP280;2801;50.972;7.856;2023-09-19T09:52:08;97266.41;;;17.65
24201;BMP280;2801;50.972;7.856;2023-09-19T09:55:03;97272.34;;;17.81
24201;BMP280;2801;50.972;7.856;2023-09-19T09:57:33;97270.16;;;17.97
24201;BMP280;2801;50.972;7.856;2023-09-19T10:00:02;97279.53;;;18.07
24201;BMP280;2801;50.972;7.856;2023-09-19T10:02:46;97273.06;;;18.22
24201;BMP280;2801;50.972;7.856;2023-09-19T10:05:22;97274.66;;;18.30
24201;BMP280;2801;50.972;7.856;2023-09-19T10:07:56;97256.88;;;18.33
24201;BMP280;2801;50.972;7.856;2023-09-19T10:10:39;97264.22;;;18.32
24201;BMP280;2801;50.972;7.856;2023-09-19T10:13:14;97256.97;;;18.43
24201;BMP280;2801;50.972;7.856;2023-09-19T10:15:49;97255.72;;;18.34
24201;BMP280;2801;50.972;7.856;2023-09-19T10:18:25;97253.47;;;18.43
24201;BMP280;2801;50.972;7.856;2023-09-19T10:20:53;97257.75;;;18.44
24201;BMP280;2801;50.972;7.856;2023-09-19T10:23:22;97247.28;;;18.46
24201;BMP280;2801;50.972;7.856;2023-09-19T10:25:51;97249.25;;;18.49
24201;BMP280;2801;50.972;7.856;2023-09-19T10:28:21;97250.44;;;18.55
24201;BMP280;2801;50.972;7.856;2023-09-19T10:30:52;97237.25;;;18.53
24201;BMP280;2801;50.972;7.856;2023-09-19T10:33:25;97236.09;;;18.58
24201;BMP280;2801;50.972;7.856;2023-09-19T10:36:00;97236.09;;;18.58
24201;BMP280;2801;50.972;7.856;2023-09-19T10:38:28;97233.44;;;18.65
24201;BMP280;2801;50.972;7.856;2023-09-19T10:40:57;97235.34;;;18.61
24201;BMP280;2801;50.972;7.856;2023-09-19T10:43:32;97228.69;;;18.48
24201;BMP280;2801;50.972;7.856;2023-09-19T10:46:07;97236.84;;;18.51
24201;BMP280;2801;50.972;7.856;2023-09-19T10:48:39;97241.84;;;18.46
24201;BMP280;2801;50.972;7.856;2023-09-19T10:51:19;97244.91;;;18.37
24201;BMP280;2801;50.972;7.856;2023-09-19T10:53:58;97239.84;;;18.36
24201;BMP280;2801;50.972;7.856;2023-09-19T10:56:33;97240.25;;;18.38
24201;BMP280;2801;50.972;7.856;2023-09-19T10:59:15;97244.94;;;18.44
24201;BMP280;2801;50.972;7.856;2023-09-19T11:01:52;97248.50;;;18.52
24201;BMP280;2801;50.972;7.856;2023-09-19T11:04:41;97234.94;;;18.55
24201;BMP280;2801;50.972;7.856;2023-09-19T11:07:11;97245.41;;;18.57
24201;BMP280;2801;50.972;7.856;2023-09-19T11:09:55;97237.69;;;18.59
24201;BMP280;2801;50.972;7.856;2023-09-19T11:15:03;97233.84;;;18.67
24201;BMP280;2801;50.972;7.856;2023-09-19T11:17:38;97242.75;;;18.67
24201;BMP280;2801;50.972;7.856;2023-09-19T11:30:47;97223.41;;;18.76
24201;BMP280;2801;50.972;7.856;2023-09-19T11:36:14;97220.22;;;18.60
24201;BMP280;2801;50.972;7.856;2023-09-19T11:46:34;97207.19;;;19.00
24201;BMP280;2801;50.972;7.856;2023-09-19T11:49:09;97210.31;;;19.02
24201;BMP280;2801;50.972;7.856;2023-09-19T11:51:43;97208.78;;;19.12
24201;BMP280;2801;50.972;7.856;2023-09-19T11:54:13;97212.28;;;19.19
24201;BMP280;2801;50.972;7.856;2023-09-19T11:56:45;97225.50;;;19.21
24201;BMP280;2801;50.972;7.856;2023-09-19T11:59:38;97217.03;;;19.29
24201;BMP280;2801;50.972;7.856;2023-09-19T12:02:07;97220.50;;;19.37
24201;BMP280;2801;50.972;7.856;2023-09-19T12:04:39;97228.31;;;19.45
24201;BMP280;2801;50.972;7.856;2023-09-19T12:07:10;97225.59;;;19.45
24201;BMP280;2801;50.972;7.856;2023-09-19T12:09:43;97226.00;;;19.58
24201;BMP280;2801;50.972;7.856;2023-09-19T12:12:11;97226.78;;;19.69
24201;BMP280;2801;50.972;7.856;2023-09-19T12:14:50;97230.69;;;19.71
24201;BMP280;2801;50.972;7.856;2023-09-19T12:17:18;97218.63;;;19.72
24201;BMP280;2801;50.972;7.856;2023-09-19T12:19:56;97220.59;;;19.72
24201;BMP280;2801;50.972;7.856;2023-09-19T12:22:23;97227.94;;;19.71
24201;BMP280;2801;50.972;7.856;2023-09-19T12:24:52;97228.72;;;19.61
24201;BMP280;2801;50.972;7.856;2023-09-19T12:27:21;97225.22;;;19.64
24201;BMP280;2801;50.972;7.856;2023-09-19T12:29:49;97213.97;;;19.66
24201;BMP280;2801;50.972;7.856;2023-09-19T12:32:17;97221.34;;;19.65
24201;BMP280;2801;50.972;7.856;2023-09-19T12:34:53;97229.50;;;19.62
24201;BMP280;2801;50.972;7.856;2023-09-19T12:37:22;97230.66;;;19.64
24201;BMP280;2801;50.972;7.856;2023-09-19T12:39:51;97219.00;;;19.67
24201;BMP280;2801;50.972;7.856;2023-09-19T12:42:26;97225.22;;;19.82
24201;BMP280;2801;50.972;7.856;2023-09-19T12:45:07;97215.53;;;19.95
24201;BMP280;2801;50.972;7.856;2023-09-19T12:47:36;97212.41;;;20.07
24201;BMP280;2801;50.972;7.856;2023-09-19T12:50:15;97212.41;;;20.03
24201;BMP280;2801;50.972;7.856;2023-09-19T12:52:49;97203.88;;;20.12
24201;BMP280;2801;50.972;7.856;2023-09-19T12:55:29;97212.78;;;20.26
24201;BMP280;2801;50.972;7.856;2023-09-19T12:58:11;97210.81;;;20.37
24201;BMP280;2801;50.972;7.856;2023-09-19T13:00:44;97203.03;;;20.43
24201;BMP280;2801;50.972;7.856;2023-09-19T13:03:24;97201.50;;;20.42
24201;BMP280;2801;50.972;7.856;2023-09-19T13:06:00;97194.47;;;20.51
24201;BMP280;2801;50.972;7.856;2023-09-19T13:08:35;97187.78;;;20.66
24201;BMP280;2801;50.972;7.856;2023-09-19T13:11:15;97184.25;;;20.76
24201;BMP280;2801;50.972;7.856;2023-09-19T13:16:21;97181.16;;;20.78
24201;BMP280;2801;50.972;7.856;2023-09-19T13:18:55;97184.25;;;20.76
24201;BMP280;2801;50.972;7.856;2023-09-19T13:21:31;97181.91;;;20.78
24201;BMP280;2801;50.972;7.856;2023-09-19T13:24:24;97174.50;;;20.82
24201;BMP280;2801;50.972;7.856;2023-09-19T13:26:57;97190.03;;;20.96
24201;BMP280;2801;50.972;7.856;2023-09-19T13:29:24;97181.84;;;20.99
24201;BMP280;2801;50.972;7.856;2023-09-19T13:31:52;97174.47;;;21.00
24201;BMP280;2801;50.972;7.856;2023-09-19T13:34:22;97167.84;;;21.01
24201;BMP280;2801;50.972;7.856;2023-09-19T13:36:50;97162.78;;;20.99
24201;BMP280;2801;50.972;7.856;2023-09-19T13:39:17;97168.97;;;21.03
24201;BMP280;2801;50.972;7.856;2023-09-19T13:41:47;97152.59;;;21.10
24201;BMP280;2801;50.972;7.856;2023-09-19T13:44:15;97151.75;;;21.17
24201;BMP280;2801;50.972;7.856;2023-09-19T13:46:44;97157.28;;;21.06
24201;BMP280;2801;50.972;7.856;2023-09-19T13:49:13;97148.44;;;20.85
24201;BMP280;2801;50.972;7.856;2023-09-19T13:51:40;97156.25;;;20.79
24201;BMP280;2801;50.972;7.856;2023-09-19T13:54:10;97158.19;;;20.79
24201;BMP280;2801;50.972;7.856;2023-09-19T13:56:39;97151.94;;;20.82
24201;BMP280;2801;50.972;7.856;2023-09-19T13:59:06;97157.00;;;20.83
24201;BMP280;2801;50.972;7.856;2023-09-19T14:01:33;97151.50;;;20.94
24201;BMP280;2801;50.972;7.856;2023-09-19T14:04:00;97145.28;;;20.90
24201;BMP280;2801;50.972;7.856;2023-09-19T14:06:29;97134.38;;;20.93
24201;BMP280;2801;50.972;7.856;2023-09-19T14:08:56;97137.09;;;20.97
24201;BMP280;2801;50.972;7.856;2023-09-19T14:11:23;97148.72;;;21.04
24201;BMP280;2801;50.972;7.856;2023-09-19T14:13:49;97143.31;;;21.01
24201;BMP280;2801;50.972;7.856;2023-09-19T14:16:21;97148.34;;;21.02
24201;BMP280;2801;50.972;7.856;2023-09-19T14:18:51;97140.16;;;21.06
24201;BMP280;2801;50.972;7.856;2023-09-19T14:21:19;97144.78;;;21.16
24201;BMP280;2801;50.972;7.856;2023-09-19T14:23:46;97127.97;;;21.21
24201;BMP280;2801;50.972;7.856;2023-09-19T14:26:13;97152.56;;;21.14
24201;BMP280;2801;50.972;7.856;2023-09-19T14:28:40;97161.22;;;20.98
24201;BMP280;2801;50.972;7.856;2023-09-19T14:31:09;97157.38;;;20.82
24201;BMP280;2801;50.972;7.856;2023-09-19T14:33:37;97153.91;;;20.78
24201;BMP280;2801;50.972;7.856;2023-09-19T14:36:09;97153.50;;;20.76
24201;BMP280;2801;50.972;7.856;2023-09-19T14:38:38;97161.66;;;20.83
24201;BMP280;2801;50.972;7.856;2023-09-19T14:41:06;97160.84;;;20.89
24201;BMP280;2801;50.972;7.856;2023-09-19T14:43:33;97158.91;;;20.90
24201;BMP280;2801;50.972;7.856;2023-09-19T14:46:04;97148.41;;;20.92
24201;BMP280;2801;50.972;7.856;2023-09-19T14:48:31;97142.94;;;20.92
24201;BMP280;2801;50.972;7.856;2023-09-19T14:51:08;97142.56;;;20.93
24201;BMP280;2801;50.972;7.856;2023-09-19T14:53:36;97141.34;;;21.05
24201;BMP280;2801;50.972;7.856;2023-09-19T14:56:08;97139.00;;;21.03
24201;BMP280;2801;50.972;7.856;2023-09-19T14:58:35;97146.34;;;21.10
24201;BMP280;2801;50.972;7.856;2023-09-19T15:01:11;97142.88;;;21.09
24201;BMP280;2801;50.972;7.856;2023-09-19T15:03:42;97144.81;;;21.09
24201;BMP280;2801;50.972;7.856;2023-09-19T15:06:11;97142.56;;;20.93
24201;BMP280;2801;50.972;7.856;2023-09-19T15:08:44;97140.31;;;20.71
24201;BMP280;2801;50.972;7.856;2023-09-19T15:11:16;97134.53;;;20.58
24201;BMP280;2801;50.972;7.856;2023-09-19T15:13:46;97139.19;;;20.58
24201;BMP280;2801;50.972;7.856;2023-09-19T15:16:14;97129.09;;;20.51
24201;BMP280;2801;50.972;7.856;2023-09-19T15:18:44;97140.03;;;20.41
24201;BMP280;2801;50.972;7.856;2023-09-19T15:21:15;97150.56;;;20.35
24201;BMP280;2801;50.972;7.856;2023-09-19T15:23:43;97156.81;;;20.22
24201;BMP280;2801;50.972;7.856;2023-09-19T15:26:14;97149.06;;;20.13
24201;BMP280;2801;50.972;7.856;2023-09-19T15:28:47;97149.47;;;20.15
24201;BMP280;2801;50.972;7.856;2023-09-19T15:31:15;97137.38;;;20.23